createdAt,value
2018-12-21T00:01:36.552Z,99.90
2018-12-21T00:04:05.978Z,99.90
2018-12-21T00:06:35.198Z,99.90
2018-12-21T00:09:05.068Z,99.90
2018-12-21T00:11:34.447Z,99.90
2018-12-21T00:14:02.837Z,99.90
2018-12-21T00:16:31.173Z,99.90
2018-12-21T00:18:59.961Z,99.90
2018-12-21T00:21:29.219Z,99.90
2018-12-21T00:23:57.579Z,99.90
2018-12-21T00:26:25.876Z,99.90
2018-12-21T00:28:54.297Z,99.90
2018-12-21T00:31:28.405Z,99.90
2018-12-21T00:34:02.363Z,99.90
2018-12-21T00:36:36.553Z,99.90
2018-12-21T00:39:11.379Z,99.90
2018-12-21T00:41:39.256Z,99.90
2018-12-21T00:44:09.544Z,99.90
2018-12-21T00:46:39.300Z,99.90
2018-12-21T00:49:07.619Z,99.90
2018-12-21T00:51:35.957Z,99.90
2018-12-21T00:54:04.345Z,99.90
2018-12-21T00:56:32.679Z,99.90
2018-12-21T00:59:00.989Z,99.90
2018-12-21T01:01:29.467Z,99.90
2018-12-21T01:03:59.874Z,99.90
2018-12-21T01:06:28.332Z,99.90
2018-12-21T01:08:57.556Z,99.90
2018-12-21T01:11:25.835Z,99.90
2018-12-21T01:13:54.331Z,99.90
2018-12-21T01:16:22.791Z,99.90
2018-12-21T01:18:51.342Z,99.90
2018-12-21T01:21:20.662Z,99.90
2018-12-21T01:23:48.973Z,99.90
2018-12-21T01:26:18.270Z,99.90
2018-12-21T01:28:46.690Z,99.90
2018-12-21T01:31:14.976Z,99.90
2018-12-21T01:33:43.397Z,99.90
2018-12-21T01:36:11.826Z,99.90
2018-12-21T01:38:40.235Z,99.90
2018-12-21T01:41:08.647Z,99.90
2018-12-21T01:43:37.826Z,99.90
2018-12-21T01:46:06.148Z,99.90
2018-12-21T01:48:34.454Z,99.90
2018-12-21T01:51:03.203Z,99.90
2018-12-21T01:53:32.559Z,99.90
2018-12-21T01:56:01.827Z,99.90
2018-12-21T01:58:30.228Z,99.90
2018-12-21T02:00:58.552Z,99.90
2018-12-21T02:03:26.854Z,99.90
2018-12-21T02:05:55.916Z,99.90
2018-12-21T02:08:24.271Z,99.90
2018-12-21T02:10:53.220Z,99.90
2018-12-21T02:13:21.634Z,99.90
2018-12-21T02:15:50.004Z,99.90
2018-12-21T02:18:18.378Z,99.90
2018-12-21T02:20:46.748Z,99.90
2018-12-21T02:23:15.162Z,99.90
2018-12-21T02:25:43.637Z,99.90
2018-12-21T02:28:11.957Z,99.90
2018-12-21T02:30:40.281Z,99.90
2018-12-21T02:33:08.675Z,99.90
2018-12-21T02:35:36.982Z,99.90
2018-12-21T02:38:06.139Z,99.90
2018-12-21T02:40:34.452Z,99.90
2018-12-21T02:43:03.223Z,99.90
2018-12-21T02:45:31.530Z,99.90
2018-12-21T02:47:59.877Z,99.90
2018-12-21T02:50:28.196Z,99.90
2018-12-21T02:52:56.563Z,99.90
2018-12-21T02:55:24.845Z,99.90
2018-12-21T02:57:53.143Z,99.90
2018-12-21T03:00:22.307Z,99.90
2018-12-21T03:02:50.713Z,99.90
2018-12-21T03:05:19.131Z,99.90
2018-12-21T03:07:47.501Z,99.90
2018-12-21T03:10:15.872Z,99.90
2018-12-21T03:12:44.224Z,99.90
2018-12-21T03:15:12.514Z,99.90
2018-12-21T03:17:40.790Z,99.90
2018-12-21T03:20:09.059Z,99.90
2018-12-21T03:22:37.485Z,99.90
2018-12-21T03:25:05.821Z,99.90
2018-12-21T03:27:35.921Z,99.90
2018-12-21T03:30:05.001Z,99.90
2018-12-21T03:32:33.409Z,99.90
2018-12-21T03:35:01.692Z,99.90
2018-12-21T03:37:30.094Z,99.90
2018-12-21T03:39:58.362Z,99.90
2018-12-21T03:42:26.718Z,99.90
2018-12-21T03:44:55.021Z,99.90
2018-12-21T03:47:23.459Z,99.90
2018-12-21T03:49:51.832Z,99.90
2018-12-21T03:52:24.149Z,99.90
2018-12-21T03:54:50.421Z,99.90
2018-12-21T03:57:18.760Z,99.90
2018-12-21T03:59:47.074Z,99.90
2018-12-21T04:02:15.346Z,99.90
2018-12-21T04:04:44.003Z,99.90
2018-12-21T04:07:13.234Z,99.90
2018-12-21T04:09:41.612Z,99.90
2018-12-21T04:12:09.960Z,99.90
2018-12-21T04:14:38.250Z,99.90
2018-12-21T04:17:06.582Z,99.90
2018-12-21T04:19:35.875Z,99.90
2018-12-21T04:22:04.250Z,99.90
2018-12-21T04:24:32.627Z,99.90
2018-12-21T04:27:01.576Z,99.90
2018-12-21T04:29:29.954Z,99.90
2018-12-21T04:31:58.251Z,99.90
2018-12-21T04:34:26.530Z,99.90
2018-12-21T04:36:55.590Z,99.90
2018-12-21T04:39:24.492Z,99.90
2018-12-21T04:41:52.835Z,99.90
2018-12-21T04:44:21.170Z,99.90
2018-12-21T04:46:49.474Z,99.90
2018-12-21T04:49:17.809Z,99.90
2018-12-21T04:51:46.215Z,99.90
2018-12-21T04:54:14.694Z,99.90
2018-12-21T04:56:42.973Z,99.90
2018-12-21T04:59:11.294Z,99.90
2018-12-21T05:01:39.772Z,99.90
2018-12-21T05:04:08.174Z,99.80
2018-12-21T05:06:36.532Z,99.80
2018-12-21T05:09:06.409Z,99.00
2018-12-21T05:11:34.727Z,97.90
2018-12-21T05:14:03.957Z,98.40
2018-12-21T05:16:32.307Z,98.60
2018-12-21T05:19:00.679Z,99.00
2018-12-21T05:21:29.133Z,98.90
2018-12-21T05:23:57.546Z,99.40
2018-12-21T05:26:25.841Z,99.20
2018-12-21T05:28:54.120Z,99.90
2018-12-21T05:31:28.190Z,99.50
2018-12-21T05:33:53.734Z,99.90
2018-12-21T05:36:22.110Z,99.90
2018-12-21T05:38:50.424Z,98.50
2018-12-21T05:41:18.709Z,98.60
2018-12-21T05:43:46.997Z,98.60
2018-12-21T05:46:15.421Z,98.00
2018-12-21T05:48:44.673Z,98.90
2018-12-21T05:51:12.943Z,99.10
2018-12-21T05:53:41.290Z,98.30
2018-12-21T05:56:10.557Z,96.20
2018-12-21T05:58:38.926Z,95.50
2018-12-21T06:01:07.242Z,94.60
2018-12-21T06:03:35.680Z,94.70
2018-12-21T06:06:04.147Z,94.60
2018-12-21T06:08:32.445Z,94.20
2018-12-21T06:11:00.811Z,94.60
2018-12-21T06:13:29.405Z,93.50
2018-12-21T06:15:57.700Z,93.80
2018-12-21T06:18:26.148Z,93.50
2018-12-21T06:20:54.658Z,94.20
2018-12-21T06:26:19.405Z,95.40
2018-12-21T06:28:47.772Z,96.00
2018-12-21T06:31:16.861Z,96.60
2018-12-21T06:33:45.237Z,96.40
2018-12-21T06:36:13.635Z,96.00
2018-12-21T06:38:43.546Z,96.30
2018-12-21T06:41:11.936Z,96.00
2018-12-21T06:43:40.298Z,97.20
2018-12-21T06:46:14.202Z,96.70
2018-12-21T06:48:38.949Z,97.90
2018-12-21T06:51:07.485Z,97.70
2018-12-21T06:53:35.821Z,96.90
2018-12-21T06:56:04.154Z,97.40
2018-12-21T06:58:32.538Z,97.50
2018-12-21T07:01:00.930Z,97.90
2018-12-21T07:03:29.744Z,99.90
2018-12-21T07:05:58.148Z,97.70
2018-12-21T07:08:26.988Z,96.10
2018-12-21T07:10:55.357Z,97.80
2018-12-21T07:13:23.763Z,98.20
2018-12-21T07:15:52.139Z,97.30
2018-12-21T07:18:20.534Z,97.00
2018-12-21T07:20:48.890Z,96.40
2018-12-21T07:23:17.226Z,96.60
2018-12-21T07:25:45.652Z,96.50
2018-12-21T07:28:13.925Z,96.50
2018-12-21T07:30:42.388Z,96.60
2018-12-21T07:33:10.778Z,96.00
2018-12-21T07:35:39.103Z,96.70
2018-12-21T07:38:07.707Z,96.60
2018-12-21T07:40:36.080Z,97.10
2018-12-21T07:43:04.371Z,97.70
2018-12-21T07:45:32.805Z,98.50
2018-12-21T07:48:03.081Z,99.20
2018-12-21T07:50:32.365Z,99.90
2018-12-21T07:53:00.656Z,99.90
2018-12-21T07:55:29.005Z,99.90
2018-12-21T07:57:58.681Z,99.90
2018-12-21T08:00:27.133Z,99.90
2018-12-21T08:02:55.539Z,99.90
2018-12-21T08:05:23.860Z,99.90
2018-12-21T08:07:52.162Z,99.90
2018-12-21T08:10:20.667Z,99.90
2018-12-21T08:12:49.138Z,99.90
2018-12-21T08:15:17.433Z,99.90
2018-12-21T08:17:46.144Z,99.90
2018-12-21T08:20:14.533Z,99.90
2018-12-21T08:22:42.921Z,99.90
2018-12-21T08:25:11.279Z,99.90
2018-12-21T08:27:39.605Z,99.90
2018-12-21T08:30:09.293Z,99.90
2018-12-21T08:32:37.708Z,99.90
2018-12-21T08:35:06.059Z,99.90
2018-12-21T08:37:34.410Z,99.90
2018-12-21T08:40:02.780Z,99.90
2018-12-21T08:42:31.105Z,99.90
2018-12-21T08:44:59.396Z,99.90
2018-12-21T08:47:27.815Z,99.90
2018-12-21T08:49:57.265Z,99.90
2018-12-21T08:52:26.532Z,99.90
2018-12-21T08:54:54.960Z,99.90
2018-12-21T08:57:23.257Z,99.90
2018-12-21T08:59:51.713Z,99.90
2018-12-21T09:02:21.180Z,99.90
2018-12-21T09:04:49.687Z,99.90
2018-12-21T09:07:18.103Z,99.90
2018-12-21T09:09:46.436Z,99.90
2018-12-21T09:12:15.536Z,99.90
2018-12-21T09:14:43.887Z,99.90
2018-12-21T09:17:12.205Z,99.90
2018-12-21T09:19:40.544Z,99.90
2018-12-21T09:22:08.880Z,99.90
2018-12-21T09:24:37.203Z,99.90
2018-12-21T09:27:05.495Z,99.90
2018-12-21T09:29:33.967Z,99.90
2018-12-21T09:32:05.178Z,99.90
2018-12-21T09:34:32.638Z,99.90
2018-12-21T09:37:01.076Z,99.90
2018-12-21T09:42:26.465Z,99.90
2018-12-21T09:44:54.815Z,99.90
2018-12-21T09:47:24.139Z,99.90
2018-12-21T09:49:52.521Z,99.90
2018-12-21T09:52:21.702Z,99.90
2018-12-21T09:54:51.016Z,99.90
2018-12-21T09:57:19.820Z,99.90
2018-12-21T09:59:48.230Z,99.90
2018-12-21T10:02:16.588Z,99.90
2018-12-21T10:04:44.979Z,99.90
2018-12-21T10:07:13.959Z,99.90
2018-12-21T10:09:42.357Z,99.90
2018-12-21T10:12:10.665Z,99.90
2018-12-21T10:14:39.763Z,99.90
2018-12-21T10:17:08.200Z,99.90
2018-12-21T10:19:36.603Z,99.90
2018-12-21T10:22:04.968Z,99.90
2018-12-21T10:24:33.324Z,99.90
2018-12-21T10:27:01.737Z,99.90
2018-12-21T10:29:30.115Z,99.90
2018-12-21T10:31:58.465Z,99.90
2018-12-21T10:34:26.832Z,99.90
2018-12-21T10:36:55.115Z,99.90
2018-12-21T10:39:23.600Z,99.90
2018-12-21T10:41:51.892Z,99.90
2018-12-21T10:44:22.110Z,99.90
2018-12-21T10:46:50.641Z,99.90
2018-12-21T10:49:19.016Z,99.90
2018-12-21T10:51:47.320Z,99.90
2018-12-21T10:54:15.723Z,99.90
2018-12-21T10:56:44.675Z,99.90
2018-12-21T10:59:20.927Z,99.90
2018-12-21T11:01:43.420Z,99.90
2018-12-21T11:04:11.680Z,99.90
2018-12-21T11:06:40.082Z,99.90
2018-12-21T11:09:08.439Z,99.90
2018-12-21T11:11:36.763Z,99.90
2018-12-21T11:14:05.177Z,99.90
2018-12-21T11:16:33.595Z,99.90
2018-12-21T11:19:01.927Z,99.90
2018-12-21T11:21:30.326Z,99.90
2018-12-21T11:23:58.615Z,99.90
2018-12-21T11:26:26.956Z,99.90
2018-12-21T11:28:55.866Z,99.90
2018-12-21T11:31:24.225Z,99.90
2018-12-21T11:33:52.574Z,99.90
2018-12-21T11:36:20.884Z,99.90
2018-12-21T11:38:49.186Z,99.90
2018-12-21T11:41:17.578Z,99.90
2018-12-21T11:43:45.928Z,99.90
2018-12-21T11:46:15.188Z,99.90
2018-12-21T11:48:43.605Z,99.90
2018-12-21T11:51:11.971Z,99.90
2018-12-21T11:53:40.353Z,99.90
2018-12-21T11:56:08.785Z,99.90
2018-12-21T11:58:37.711Z,99.90
2018-12-21T12:01:06.004Z,99.90
2018-12-21T12:03:34.420Z,99.90
2018-12-21T12:06:02.784Z,99.90
2018-12-21T12:08:32.053Z,99.90
2018-12-21T12:11:00.441Z,99.90
2018-12-21T12:13:28.715Z,99.90
2018-12-21T12:15:57.261Z,99.90
2018-12-21T12:18:25.687Z,99.90
2018-12-21T12:20:53.981Z,99.90
2018-12-21T12:23:22.306Z,99.90
2018-12-21T12:25:50.691Z,99.90
2018-12-21T12:28:19.022Z,99.90
2018-12-21T12:30:47.388Z,99.90
2018-12-21T12:33:15.721Z,99.90
2018-12-21T12:35:44.015Z,99.90
2018-12-21T12:38:12.282Z,99.90
2018-12-21T12:40:41.053Z,99.90
2018-12-21T12:43:09.366Z,99.90
2018-12-21T12:45:38.142Z,99.90
2018-12-21T12:48:06.614Z,99.90
2018-12-21T12:50:35.029Z,99.90
2018-12-21T12:53:03.392Z,99.90
2018-12-21T12:55:31.779Z,99.90
2018-12-21T12:58:01.083Z,99.90
2018-12-21T13:00:29.422Z,99.90
2018-12-21T13:02:57.746Z,99.90
2018-12-21T13:05:26.518Z,99.90
2018-12-21T13:07:55.500Z,99.90
2018-12-21T13:10:23.803Z,99.90
2018-12-21T13:12:52.177Z,99.90
2018-12-21T13:15:21.450Z,99.90
2018-12-21T13:17:49.806Z,99.90
2018-12-21T13:20:19.009Z,99.90
2018-12-21T13:22:48.070Z,99.90
2018-12-21T13:25:16.754Z,99.90
2018-12-21T13:27:45.036Z,99.90
2018-12-21T13:30:13.327Z,99.90
2018-12-21T13:32:41.816Z,99.90
2018-12-21T13:35:10.155Z,99.90
2018-12-21T13:37:38.447Z,99.90
2018-12-21T13:40:08.570Z,99.90
2018-12-21T13:42:36.906Z,99.90
2018-12-21T13:45:07.470Z,99.90
2018-12-21T13:47:35.844Z,99.90
2018-12-21T13:50:06.433Z,99.90
2018-12-21T13:52:34.766Z,99.90
2018-12-21T13:55:03.538Z,99.90
2018-12-21T13:57:32.192Z,99.90
2018-12-21T14:00:00.467Z,99.90
2018-12-21T14:02:28.845Z,99.90
2018-12-21T14:04:57.236Z,99.90
2018-12-21T14:07:27.363Z,99.90
2018-12-21T14:09:55.667Z,99.90
2018-12-21T14:12:24.147Z,99.90
2018-12-21T14:14:52.425Z,99.90
2018-12-21T14:17:21.679Z,99.90
2018-12-21T14:19:50.146Z,99.90
2018-12-21T14:22:18.469Z,99.90
2018-12-21T14:24:46.841Z,99.90
2018-12-21T14:27:15.234Z,99.90
2018-12-21T14:29:43.828Z,99.90
2018-12-21T14:32:12.147Z,99.90
2018-12-21T14:34:40.603Z,99.90
2018-12-21T14:37:08.949Z,99.90
2018-12-21T14:39:37.307Z,99.90
2018-12-21T14:42:05.597Z,99.90
2018-12-21T14:44:33.952Z,99.90
2018-12-21T14:47:02.276Z,99.90
2018-12-21T14:49:30.896Z,99.90
2018-12-21T14:51:59.271Z,99.90
2018-12-21T14:54:27.657Z,99.90
2018-12-21T14:56:56.007Z,99.90
2018-12-21T14:59:24.337Z,99.90
2018-12-21T15:01:52.693Z,99.90
2018-12-21T15:04:21.062Z,99.90
2018-12-21T15:06:49.968Z,99.90
2018-12-21T15:09:18.295Z,99.90
2018-12-21T15:11:46.686Z,99.90
2018-12-21T15:14:15.171Z,99.90
2018-12-21T15:16:43.736Z,99.90
2018-12-21T15:19:12.076Z,99.90
2018-12-21T15:21:40.478Z,99.90
2018-12-21T15:24:08.831Z,99.90
2018-12-21T15:26:37.207Z,99.90
2018-12-21T15:29:05.495Z,99.90
2018-12-21T15:31:34.248Z,99.90
2018-12-21T15:34:02.579Z,99.90
2018-12-21T15:36:30.883Z,99.90
2018-12-21T15:38:59.176Z,99.90
2018-12-21T15:41:27.576Z,99.90
2018-12-21T15:43:55.888Z,99.90
2018-12-21T15:46:24.843Z,99.90
2018-12-21T15:48:53.146Z,99.90
2018-12-21T15:51:22.507Z,99.90
2018-12-21T15:53:50.853Z,99.90
2018-12-21T15:56:19.172Z,99.90
2018-12-21T15:58:47.976Z,99.90
2018-12-21T16:01:16.538Z,99.90
2018-12-21T16:03:45.122Z,99.90
2018-12-21T16:06:13.555Z,99.90
2018-12-21T16:08:41.967Z,99.90
2018-12-21T16:11:10.260Z,99.90
2018-12-21T16:13:38.624Z,99.90
2018-12-21T16:16:07.018Z,99.90
2018-12-21T16:18:35.319Z,99.90
2018-12-21T16:21:03.749Z,99.90
2018-12-21T16:23:32.071Z,99.90
2018-12-21T16:26:03.569Z,99.90
2018-12-21T16:28:31.730Z,99.90
2018-12-21T16:31:00.075Z,99.90
2018-12-21T16:33:28.418Z,99.90
2018-12-21T16:35:56.766Z,99.90
2018-12-21T16:38:26.031Z,99.90
2018-12-21T16:40:55.178Z,99.90
2018-12-21T16:43:23.557Z,99.90
2018-12-21T16:45:51.981Z,99.90
2018-12-21T16:48:20.332Z,99.90
2018-12-21T16:50:48.634Z,99.90
2018-12-21T16:53:16.901Z,99.90
2018-12-21T16:55:45.237Z,99.90
2018-12-21T16:58:13.743Z,99.90
2018-12-21T17:00:42.033Z,99.90
2018-12-21T17:03:15.561Z,99.90
2018-12-21T17:05:42.671Z,99.90
2018-12-21T17:08:11.215Z,99.90
2018-12-21T17:10:39.558Z,99.90
2018-12-21T17:13:08.102Z,99.90
2018-12-21T17:15:36.471Z,99.90
2018-12-21T17:18:04.942Z,99.90
2018-12-21T17:20:33.216Z,99.90
2018-12-21T17:23:01.705Z,99.90
2018-12-21T17:25:30.274Z,99.90
2018-12-21T17:27:58.633Z,99.90
2018-12-21T17:30:26.950Z,99.90
2018-12-21T17:32:55.270Z,99.90
2018-12-21T17:35:23.641Z,99.90
2018-12-21T17:37:51.937Z,99.90
2018-12-21T17:40:20.304Z,99.90
2018-12-21T17:42:48.624Z,99.90
2018-12-21T17:45:16.991Z,99.90
2018-12-21T17:47:45.296Z,99.90
2018-12-21T17:50:13.681Z,99.90
2018-12-21T17:52:42.048Z,99.90
2018-12-21T17:55:11.389Z,99.90
2018-12-21T17:57:39.997Z,99.90
2018-12-21T18:00:13.123Z,99.90
2018-12-21T18:02:42.988Z,99.90
2018-12-21T18:05:11.652Z,99.90
2018-12-21T18:07:39.937Z,99.90
2018-12-21T18:10:10.509Z,99.90
2018-12-21T18:12:39.067Z,99.90
2018-12-21T18:15:09.131Z,99.90
2018-12-21T18:17:37.531Z,99.90
2018-12-21T18:20:08.582Z,99.90
2018-12-21T18:22:36.858Z,99.90
2018-12-21T18:25:09.440Z,99.90
2018-12-21T18:27:37.850Z,99.90
2018-12-21T18:30:15.782Z,99.90
2018-12-21T18:32:43.965Z,99.90
2018-12-21T18:35:12.404Z,99.90
2018-12-21T18:37:44.437Z,99.90
2018-12-21T18:40:12.808Z,99.90
2018-12-21T18:42:42.228Z,99.90
2018-12-21T18:45:10.602Z,99.90
2018-12-21T18:47:38.978Z,99.90
2018-12-21T18:50:09.489Z,99.90
2018-12-21T18:52:38.733Z,99.90
2018-12-21T18:55:10.555Z,99.90
2018-12-21T18:57:39.463Z,99.90
2018-12-21T19:00:11.696Z,99.90
2018-12-21T19:02:42.147Z,99.90
2018-12-21T19:05:10.552Z,99.90
2018-12-21T19:07:38.868Z,99.90
2018-12-21T19:10:07.987Z,99.90
2018-12-21T19:12:36.397Z,99.90
2018-12-21T19:15:05.972Z,99.90
2018-12-21T19:17:34.263Z,99.90
2018-12-21T19:20:03.294Z,99.90
2018-12-21T19:22:31.615Z,99.90
2018-12-21T19:24:59.968Z,99.90
2018-12-21T19:27:28.284Z,99.90
2018-12-21T19:29:56.678Z,99.90
2018-12-21T19:32:24.999Z,99.90
2018-12-21T19:34:53.344Z,99.90
2018-12-21T19:37:21.710Z,99.90
2018-12-21T19:39:50.030Z,99.90
2018-12-21T19:42:19.259Z,99.90
2018-12-21T19:44:47.555Z,99.90
2018-12-21T19:47:16.117Z,99.90
2018-12-21T19:49:44.455Z,99.90
2018-12-21T19:52:12.802Z,99.90
2018-12-21T19:54:41.172Z,99.90
2018-12-21T19:57:09.444Z,99.90
2018-12-21T19:59:38.703Z,99.90
2018-12-21T20:02:07.054Z,99.90
2018-12-21T20:04:35.446Z,99.90
2018-12-21T20:07:03.951Z,99.90
2018-12-21T20:09:32.306Z,99.90
2018-12-21T20:12:01.601Z,99.90
2018-12-21T20:14:30.009Z,99.90
2018-12-21T20:16:58.371Z,99.90
2018-12-21T20:19:26.778Z,99.90
2018-12-21T20:21:55.103Z,99.90
2018-12-21T20:24:23.682Z,99.90
2018-12-21T20:26:52.068Z,99.90
2018-12-21T20:29:20.452Z,99.90
2018-12-21T20:31:48.754Z,99.90
2018-12-21T20:34:17.055Z,99.90
2018-12-21T20:36:46.245Z,99.90
2018-12-21T20:39:14.745Z,99.90
2018-12-21T20:41:43.109Z,99.90
2018-12-21T20:44:11.406Z,99.90
2018-12-21T20:46:39.914Z,99.90
2018-12-21T20:49:08.186Z,99.90
2018-12-21T20:51:36.497Z,99.90
2018-12-21T20:54:04.873Z,99.90
2018-12-21T20:56:33.237Z,99.90
2018-12-21T20:59:02.090Z,99.90
2018-12-21T21:01:30.574Z,99.90
2018-12-21T21:03:59.026Z,99.90
2018-12-21T21:06:27.363Z,99.90
2018-12-21T21:08:55.741Z,99.90
2018-12-21T21:11:26.048Z,99.90
2018-12-21T21:13:55.031Z,99.90
2018-12-21T21:16:24.704Z,99.90
2018-12-21T21:18:53.075Z,99.90
2018-12-21T21:21:21.457Z,99.90
2018-12-21T21:23:49.794Z,99.90
2018-12-21T21:26:18.892Z,99.90
2018-12-21T21:28:47.288Z,99.90
2018-12-21T21:31:15.640Z,99.90
2018-12-21T21:33:44.075Z,99.90
2018-12-21T21:36:12.423Z,99.90
2018-12-21T21:38:40.810Z,99.90
2018-12-21T21:41:09.201Z,99.90
2018-12-21T21:43:38.548Z,99.90
2018-12-21T21:46:06.926Z,99.90
2018-12-21T21:48:35.758Z,99.90
2018-12-21T21:51:04.099Z,99.90
2018-12-21T21:53:33.514Z,99.90
2018-12-21T21:56:01.853Z,99.90
2018-12-21T21:58:32.283Z,99.90
2018-12-21T22:01:00.608Z,99.90
2018-12-21T22:03:28.903Z,99.90
2018-12-21T22:08:57.195Z,99.90
2018-12-21T22:11:25.506Z,99.90
2018-12-21T22:13:54.494Z,99.90
2018-12-21T22:16:22.922Z,99.90
2018-12-21T22:18:51.304Z,99.90
2018-12-21T22:21:20.390Z,99.90
2018-12-21T22:23:48.749Z,99.90
2018-12-21T22:26:17.189Z,99.90
2018-12-21T22:28:45.522Z,99.90
2018-12-21T22:31:13.957Z,99.90
2018-12-21T22:33:42.406Z,99.90
2018-12-21T22:36:10.702Z,99.90
2018-12-21T22:38:39.134Z,99.90
2018-12-21T22:41:07.435Z,99.90
2018-12-21T22:43:36.229Z,99.90
2018-12-21T22:46:04.612Z,99.90
2018-12-21T22:48:32.919Z,99.90
2018-12-21T22:51:01.386Z,99.90
2018-12-21T22:53:29.905Z,99.90
2018-12-21T22:55:58.247Z,99.90
2018-12-21T22:58:26.693Z,99.90
2018-12-21T23:00:55.206Z,99.90
2018-12-21T23:03:23.596Z,99.90
2018-12-21T23:05:52.534Z,99.90
2018-12-21T23:08:21.288Z,99.90
2018-12-21T23:10:49.648Z,99.90
2018-12-21T23:13:18.086Z,99.90
2018-12-21T23:15:46.510Z,99.90
2018-12-21T23:18:16.742Z,99.90
2018-12-21T23:20:45.207Z,99.90
2018-12-21T23:23:14.354Z,99.90
2018-12-21T23:25:42.701Z,99.90
2018-12-21T23:28:11.004Z,99.90
2018-12-21T23:30:39.878Z,99.90
2018-12-21T23:33:08.200Z,99.90
2018-12-21T23:35:36.578Z,99.90
2018-12-21T23:38:05.850Z,99.90
2018-12-21T23:40:34.351Z,99.90
2018-12-21T23:43:02.675Z,99.90
2018-12-21T23:45:31.268Z,99.90
2018-12-21T23:47:59.574Z,99.90
2018-12-21T23:50:28.992Z,99.90
2018-12-21T23:52:57.314Z,99.90
2018-12-21T23:55:25.861Z,99.90
2018-12-21T23:57:55.157Z,99.90
